sensor_id;sensor_type;location;lat;lon;timestamp;P1;durP1;ratioP1;P2;durP2;ratioP2
78430;SDS011;67727;50.236;22.452;2023-07-02T00:02:24;25.30;;;18.50;;
78430;SDS011;67727;50.236;22.452;2023-07-02T00:04:51;18.90;;;16.80;;
78430;SDS011;67727;50.236;22.452;2023-07-02T00:07:18;26.30;;;16.50;;
78430;SDS011;67727;50.236;22.452;2023-07-02T00:12:12;20.40;;;16.50;;
78430;SDS011;67727;50.236;22.452;2023-07-02T00:14:39;22.50;;;16.50;;
78430;SDS011;67727;50.236;22.452;2023-07-02T00:17:06;18.70;;;15.90;;
78430;SDS011;67727;50.236;22.452;2023-07-02T00:19:33;21.60;;;17.20;;
78430;SDS011;67727;50.236;22.452;2023-07-02T00:22:00;22.70;;;18.30;;
78430;SDS011;67727;50.236;22.452;2023-07-02T00:24:27;20.40;;;17.40;;
78430;SDS011;67727;50.236;22.452;2023-07-02T00:26:55;18.90;;;15.20;;
78430;SDS011;67727;50.236;22.452;2023-07-02T00:29:22;18.70;;;16.20;;
78430;SDS011;67727;50.236;22.452;2023-07-02T00:31:49;19.20;;;16.40;;
78430;SDS011;67727;50.236;22.452;2023-07-02T00:34:15;23.70;;;16.60;;
78430;SDS011;67727;50.236;22.452;2023-07-02T00:36:42;22.50;;;16.80;;
78430;SDS011;67727;50.236;22.452;2023-07-02T00:39:09;22.80;;;18.60;;
78430;SDS011;67727;50.236;22.452;2023-07-02T00:41:38;21.40;;;19.00;;
78430;SDS011;67727;50.236;22.452;2023-07-02T00:44:06;25.90;;;19.80;;
78430;SDS011;67727;50.236;22.452;2023-07-02T00:46:33;24.10;;;16.60;;
78430;SDS011;67727;50.236;22.452;2023-07-02T00:49:00;22.30;;;16.90;;
78430;SDS011;67727;50.236;22.452;2023-07-02T00:51:30;22.70;;;17.90;;
78430;SDS011;67727;50.236;22.452;2023-07-02T00:53:58;20.30;;;16.80;;
78430;SDS011;67727;50.236;22.452;2023-07-02T00:56:26;21.40;;;18.50;;
78430;SDS011;67727;50.236;22.452;2023-07-02T00:58:54;22.60;;;17.90;;
78430;SDS011;67727;50.236;22.452;2023-07-02T01:01:25;23.00;;;18.50;;
78430;SDS011;67727;50.236;22.452;2023-07-02T01:06:26;21.50;;;16.40;;
78430;SDS011;67727;50.236;22.452;2023-07-02T01:08:55;21.60;;;16.20;;
78430;SDS011;67727;50.236;22.452;2023-07-02T01:11:34;20.40;;;17.00;;
78430;SDS011;67727;50.236;22.452;2023-07-02T01:14:26;22.20;;;16.90;;
78430;SDS011;67727;50.236;22.452;2023-07-02T01:17:00;22.80;;;17.40;;
78430;SDS011;67727;50.236;22.452;2023-07-02T01:22:00;23.30;;;16.00;;
78430;SDS011;67727;50.236;22.452;2023-07-02T01:24:28;21.80;;;16.00;;
78430;SDS011;67727;50.236;22.452;2023-07-02T01:26:55;20.30;;;16.50;;
78430;SDS011;67727;50.236;22.452;2023-07-02T01:29:22;21.00;;;16.30;;
78430;SDS011;67727;50.236;22.452;2023-07-02T01:31:49;22.30;;;16.20;;
78430;SDS011;67727;50.236;22.452;2023-07-02T01:34:16;22.10;;;17.30;;
78430;SDS011;67727;50.236;22.452;2023-07-02T01:36:43;19.20;;;15.70;;
78430;SDS011;67727;50.236;22.452;2023-07-02T01:41:50;21.70;;;17.50;;
78430;SDS011;67727;50.236;22.452;2023-07-02T01:44:19;23.90;;;17.60;;
78430;SDS011;67727;50.236;22.452;2023-07-02T01:46:46;20.50;;;16.10;;
78430;SDS011;67727;50.236;22.452;2023-07-02T01:49:17;24.40;;;17.20;;
78430;SDS011;67727;50.236;22.452;2023-07-02T01:51:49;21.40;;;16.60;;
78430;SDS011;67727;50.236;22.452;2023-07-02T01:54:19;23.60;;;17.50;;
78430;SDS011;67727;50.236;22.452;2023-07-02T01:56:48;28.50;;;16.90;;
78430;SDS011;67727;50.236;22.452;2023-07-02T01:59:15;22.90;;;17.30;;
78430;SDS011;67727;50.236;22.452;2023-07-02T02:01:43;23.40;;;17.30;;
78430;SDS011;67727;50.236;22.452;2023-07-02T02:04:10;23.50;;;18.50;;
78430;SDS011;67727;50.236;22.452;2023-07-02T02:06:37;27.70;;;19.90;;
78430;SDS011;67727;50.236;22.452;2023-07-02T02:09:06;19.90;;;18.90;;
78430;SDS011;67727;50.236;22.452;2023-07-02T02:11:39;25.00;;;18.40;;
78430;SDS011;67727;50.236;22.452;2023-07-02T02:14:07;22.80;;;17.50;;
78430;SDS011;67727;50.236;22.452;2023-07-02T02:16:34;24.00;;;18.20;;
78430;SDS011;67727;50.236;22.452;2023-07-02T02:19:01;19.60;;;17.50;;
78430;SDS011;67727;50.236;22.452;2023-07-02T02:21:28;24.10;;;18.20;;
78430;SDS011;67727;50.236;22.452;2023-07-02T02:23:55;21.40;;;18.00;;
78430;SDS011;67727;50.236;22.452;2023-07-02T02:28:51;21.00;;;18.70;;
78430;SDS011;67727;50.236;22.452;2023-07-02T02:31:18;21.50;;;18.20;;
78430;SDS011;67727;50.236;22.452;2023-07-02T02:33:45;21.60;;;17.80;;
78430;SDS011;67727;50.236;22.452;2023-07-02T02:36:12;21.80;;;18.10;;
78430;SDS011;67727;50.236;22.452;2023-07-02T02:38:38;23.70;;;17.70;;
78430;SDS011;67727;50.236;22.452;2023-07-02T02:41:05;21.10;;;17.80;;
78430;SDS011;67727;50.236;22.452;2023-07-02T02:43:34;20.60;;;16.70;;
78430;SDS011;67727;50.236;22.452;2023-07-02T02:46:01;26.00;;;18.50;;
78430;SDS011;67727;50.236;22.452;2023-07-02T02:48:28;26.40;;;18.40;;
78430;SDS011;67727;50.236;22.452;2023-07-02T02:50:55;25.10;;;18.60;;
78430;SDS011;67727;50.236;22.452;2023-07-02T02:53:22;25.00;;;19.20;;
78430;SDS011;67727;50.236;22.452;2023-07-02T02:55:49;27.80;;;20.10;;
78430;SDS011;67727;50.236;22.452;2023-07-02T02:58:16;22.80;;;18.70;;
78430;SDS011;67727;50.236;22.452;2023-07-02T03:00:43;28.30;;;19.20;;
78430;SDS011;67727;50.236;22.452;2023-07-02T03:03:12;23.90;;;18.30;;
78430;SDS011;67727;50.236;22.452;2023-07-02T03:05:39;24.30;;;18.10;;
78430;SDS011;67727;50.236;22.452;2023-07-02T03:08:06;27.20;;;17.20;;
78430;SDS011;67727;50.236;22.452;2023-07-02T03:10:33;26.80;;;17.20;;
78430;SDS011;67727;50.236;22.452;2023-07-02T03:13:00;20.00;;;15.90;;
78430;SDS011;67727;50.236;22.452;2023-07-02T03:15:27;23.20;;;17.40;;
78430;SDS011;67727;50.236;22.452;2023-07-02T03:17:54;24.30;;;16.70;;
78430;SDS011;67727;50.236;22.452;2023-07-02T03:20:21;28.90;;;18.30;;
78430;SDS011;67727;50.236;22.452;2023-07-02T03:22:48;22.80;;;17.10;;
78430;SDS011;67727;50.236;22.452;2023-07-02T03:25:15;22.80;;;17.70;;
78430;SDS011;67727;50.236;22.452;2023-07-02T03:27:42;22.50;;;19.10;;
78430;SDS011;67727;50.236;22.452;2023-07-02T03:30:09;23.00;;;19.60;;
78430;SDS011;67727;50.236;22.452;2023-07-02T03:32:36;25.20;;;17.30;;
78430;SDS011;67727;50.236;22.452;2023-07-02T03:35:03;25.20;;;18.40;;
78430;SDS011;67727;50.236;22.452;2023-07-02T03:37:31;22.20;;;17.40;;
78430;SDS011;67727;50.236;22.452;2023-07-02T03:39:57;22.60;;;17.20;;
78430;SDS011;67727;50.236;22.452;2023-07-02T03:42:25;20.80;;;16.80;;
78430;SDS011;67727;50.236;22.452;2023-07-02T03:44:52;24.80;;;17.00;;
78430;SDS011;67727;50.236;22.452;2023-07-02T03:47:19;20.50;;;17.90;;
78430;SDS011;67727;50.236;22.452;2023-07-02T03:49:46;24.90;;;18.30;;
78430;SDS011;67727;50.236;22.452;2023-07-02T03:52:13;20.80;;;18.40;;
78430;SDS011;67727;50.236;22.452;2023-07-02T03:54:40;21.50;;;18.20;;
78430;SDS011;67727;50.236;22.452;2023-07-02T03:57:09;22.60;;;18.40;;
78430;SDS011;67727;50.236;22.452;2023-07-02T03:59:36;26.00;;;18.00;;
78430;SDS011;67727;50.236;22.452;2023-07-02T04:02:03;24.20;;;17.60;;
78430;SDS011;67727;50.236;22.452;2023-07-02T04:04:30;19.80;;;16.70;;
78430;SDS011;67727;50.236;22.452;2023-07-02T04:06:57;21.70;;;17.10;;
78430;SDS011;67727;50.236;22.452;2023-07-02T04:09:24;18.00;;;16.10;;
78430;SDS011;67727;50.236;22.452;2023-07-02T04:11:51;24.80;;;17.70;;
78430;SDS011;67727;50.236;22.452;2023-07-02T04:14:17;18.30;;;16.10;;
78430;SDS011;67727;50.236;22.452;2023-07-02T04:16:44;20.30;;;16.80;;
78430;SDS011;67727;50.236;22.452;2023-07-02T04:19:11;20.60;;;16.90;;
78430;SDS011;67727;50.236;22.452;2023-07-02T04:24:05;23.10;;;17.70;;
78430;SDS011;67727;50.236;22.452;2023-07-02T04:26:32;21.20;;;17.30;;
78430;SDS011;67727;50.236;22.452;2023-07-02T04:28:59;21.60;;;17.00;;
78430;SDS011;67727;50.236;22.452;2023-07-02T04:31:26;18.90;;;16.00;;
78430;SDS011;67727;50.236;22.452;2023-07-02T04:33:53;18.50;;;16.40;;
78430;SDS011;67727;50.236;22.452;2023-07-02T04:36:20;19.10;;;16.50;;
78430;SDS011;67727;50.236;22.452;2023-07-02T04:38:47;18.00;;;16.00;;
78430;SDS011;67727;50.236;22.452;2023-07-02T04:41:14;17.90;;;16.10;;
78430;SDS011;67727;50.236;22.452;2023-07-02T04:43:41;19.10;;;16.70;;
78430;SDS011;67727;50.236;22.452;2023-07-02T04:46:08;20.20;;;15.80;;
78430;SDS011;67727;50.236;22.452;2023-07-02T04:48:35;19.20;;;16.50;;
78430;SDS011;67727;50.236;22.452;2023-07-02T04:51:02;19.40;;;15.40;;
78430;SDS011;67727;50.236;22.452;2023-07-02T04:53:29;18.70;;;15.90;;
78430;SDS011;67727;50.236;22.452;2023-07-02T04:55:56;16.90;;;15.20;;
78430;SDS011;67727;50.236;22.452;2023-07-02T04:58:24;19.10;;;15.90;;
78430;SDS011;67727;50.236;22.452;2023-07-02T05:00:51;17.60;;;15.90;;
78430;SDS011;67727;50.236;22.452;2023-07-02T05:05:45;18.20;;;16.00;;
78430;SDS011;67727;50.236;22.452;2023-07-02T05:08:12;15.70;;;14.00;;
78430;SDS011;67727;50.236;22.452;2023-07-02T05:10:38;18.70;;;14.00;;
78430;SDS011;67727;50.236;22.452;2023-07-02T05:13:06;15.10;;;13.50;;
78430;SDS011;67727;50.236;22.452;2023-07-02T05:15:32;16.10;;;14.10;;
78430;SDS011;67727;50.236;22.452;2023-07-02T05:17:59;14.90;;;13.20;;
78430;SDS011;67727;50.236;22.452;2023-07-02T05:20:28;15.40;;;13.80;;
78430;SDS011;67727;50.236;22.452;2023-07-02T05:22:55;18.90;;;13.90;;
78430;SDS011;67727;50.236;22.452;2023-07-02T05:25:22;18.60;;;13.60;;
78430;SDS011;67727;50.236;22.452;2023-07-02T05:27:49;16.80;;;11.70;;
78430;SDS011;67727;50.236;22.452;2023-07-02T05:30:16;15.70;;;11.70;;
78430;SDS011;67727;50.236;22.452;2023-07-02T05:35:10;13.90;;;11.50;;
78430;SDS011;67727;50.236;22.452;2023-07-02T05:37:36;15.40;;;11.90;;
78430;SDS011;67727;50.236;22.452;2023-07-02T05:40:03;15.70;;;12.60;;
78430;SDS011;67727;50.236;22.452;2023-07-02T05:42:31;18.30;;;12.60;;
78430;SDS011;67727;50.236;22.452;2023-07-02T05:44:58;15.20;;;12.90;;
78430;SDS011;67727;50.236;22.452;2023-07-02T05:47:25;17.80;;;13.10;;
78430;SDS011;67727;50.236;22.452;2023-07-02T05:49:51;15.00;;;12.70;;
78430;SDS011;67727;50.236;22.452;2023-07-02T05:52:18;13.70;;;12.10;;
78430;SDS011;67727;50.236;22.452;2023-07-02T05:54:45;15.30;;;12.80;;
78430;SDS011;67727;50.236;22.452;2023-07-02T05:57:12;15.30;;;12.40;;
78430;SDS011;67727;50.236;22.452;2023-07-02T05:59:39;15.00;;;11.80;;
78430;SDS011;67727;50.236;22.452;2023-07-02T06:04:33;15.20;;;12.70;;
78430;SDS011;67727;50.236;22.452;2023-07-02T06:06:59;14.70;;;11.60;;
78430;SDS011;67727;50.236;22.452;2023-07-02T06:09:26;15.90;;;12.90;;
78430;SDS011;67727;50.236;22.452;2023-07-02T06:11:53;15.00;;;12.40;;
78430;SDS011;67727;50.236;22.452;2023-07-02T06:14:20;16.20;;;12.80;;
78430;SDS011;67727;50.236;22.452;2023-07-02T06:16:48;15.60;;;13.00;;
78430;SDS011;67727;50.236;22.452;2023-07-02T06:19:15;15.90;;;12.70;;
78430;SDS011;67727;50.236;22.452;2023-07-02T06:21:41;14.30;;;12.80;;
78430;SDS011;67727;50.236;22.452;2023-07-02T06:24:08;18.00;;;12.60;;
78430;SDS011;67727;50.236;22.452;2023-07-02T06:26:35;19.50;;;12.90;;
78430;SDS011;67727;50.236;22.452;2023-07-02T06:29:02;17.40;;;13.10;;
78430;SDS011;67727;50.236;22.452;2023-07-02T06:31:29;14.90;;;12.60;;
78430;SDS011;67727;50.236;22.452;2023-07-02T06:36:23;15.20;;;12.00;;
78430;SDS011;67727;50.236;22.452;2023-07-02T06:38:49;16.80;;;12.70;;
78430;SDS011;67727;50.236;22.452;2023-07-02T06:41:16;14.90;;;12.00;;
78430;SDS011;67727;50.236;22.452;2023-07-02T06:46:10;13.90;;;12.30;;
78430;SDS011;67727;50.236;22.452;2023-07-02T06:48:38;15.10;;;12.20;;
78430;SDS011;67727;50.236;22.452;2023-07-02T06:51:05;13.70;;;12.20;;
78430;SDS011;67727;50.236;22.452;2023-07-02T06:53:31;15.30;;;11.80;;
78430;SDS011;67727;50.236;22.452;2023-07-02T06:58:25;12.70;;;10.90;;
78430;SDS011;67727;50.236;22.452;2023-07-02T07:03:19;12.20;;;10.20;;
78430;SDS011;67727;50.236;22.452;2023-07-02T07:08:12;13.40;;;10.70;;
78430;SDS011;67727;50.236;22.452;2023-07-02T07:13:06;11.70;;;10.10;;
78430;SDS011;67727;50.236;22.452;2023-07-02T07:18:03;11.70;;;10.20;;
78430;SDS011;67727;50.236;22.452;2023-07-02T07:20:30;11.50;;;9.50;;
78430;SDS011;67727;50.236;22.452;2023-07-02T07:22:58;15.10;;;9.50;;
78430;SDS011;67727;50.236;22.452;2023-07-02T07:25:25;11.30;;;9.60;;
78430;SDS011;67727;50.236;22.452;2023-07-02T07:27:52;12.30;;;9.60;;
78430;SDS011;67727;50.236;22.452;2023-07-02T07:30:19;12.00;;;9.00;;
78430;SDS011;67727;50.236;22.452;2023-07-02T07:32:49;15.20;;;9.00;;
78430;SDS011;67727;50.236;22.452;2023-07-02T07:35:17;9.90;;;8.60;;
78430;SDS011;67727;50.236;22.452;2023-07-02T07:37:48;10.30;;;8.20;;
78430;SDS011;67727;50.236;22.452;2023-07-02T07:40:15;12.60;;;7.90;;
78430;SDS011;67727;50.236;22.452;2023-07-02T07:42:42;10.30;;;9.00;;
78430;SDS011;67727;50.236;22.452;2023-07-02T07:45:10;12.10;;;8.20;;
78430;SDS011;67727;50.236;22.452;2023-07-02T07:47:38;11.60;;;8.10;;
78430;SDS011;67727;50.236;22.452;2023-07-02T07:50:05;13.40;;;8.80;;
78430;SDS011;67727;50.236;22.452;2023-07-02T07:52:40;11.50;;;8.70;;
78430;SDS011;67727;50.236;22.452;2023-07-02T07:55:07;10.30;;;8.40;;
78430;SDS011;67727;50.236;22.452;2023-07-02T07:57:36;10.20;;;8.00;;
78430;SDS011;67727;50.236;22.452;2023-07-02T08:00:04;10.40;;;8.20;;
78430;SDS011;67727;50.236;22.452;2023-07-02T08:02:38;10.30;;;8.20;;
78430;SDS011;67727;50.236;22.452;2023-07-02T08:05:05;10.50;;;8.60;;
78430;SDS011;67727;50.236;22.452;2023-07-02T08:07:32;11.60;;;7.50;;
78430;SDS011;67727;50.236;22.452;2023-07-02T08:09:59;10.20;;;7.60;;
78430;SDS011;67727;50.236;22.452;2023-07-02T08:12:26;11.10;;;8.30;;
78430;SDS011;67727;50.236;22.452;2023-07-02T08:14:56;10.80;;;7.60;;
78430;SDS011;67727;50.236;22.452;2023-07-02T08:17:23;10.40;;;7.70;;
78430;SDS011;67727;50.236;22.452;2023-07-02T08:19:50;10.00;;;7.90;;
78430;SDS011;67727;50.236;22.452;2023-07-02T08:22:17;10.90;;;8.10;;
78430;SDS011;67727;50.236;22.452;2023-07-02T08:24:43;10.30;;;7.30;;
78430;SDS011;67727;50.236;22.452;2023-07-02T08:27:10;7.70;;;6.40;;
78430;SDS011;67727;50.236;22.452;2023-07-02T08:29:40;9.20;;;7.10;;
78430;SDS011;67727;50.236;22.452;2023-07-02T08:32:07;10.50;;;7.30;;
78430;SDS011;67727;50.236;22.452;2023-07-02T08:34:34;12.50;;;8.00;;
78430;SDS011;67727;50.236;22.452;2023-07-02T08:37:00;10.10;;;7.80;;
78430;SDS011;67727;50.236;22.452;2023-07-02T08:39:27;10.70;;;6.70;;
78430;SDS011;67727;50.236;22.452;2023-07-02T08:41:54;8.00;;;6.20;;
78430;SDS011;67727;50.236;22.452;2023-07-02T08:44:21;9.70;;;6.80;;
78430;SDS011;67727;50.236;22.452;2023-07-02T08:46:49;8.20;;;6.30;;
78430;SDS011;67727;50.236;22.452;2023-07-02T08:49:17;6.80;;;5.50;;
78430;SDS011;67727;50.236;22.452;2023-07-02T08:51:45;9.20;;;6.10;;
78430;SDS011;67727;50.236;22.452;2023-07-02T08:54:12;8.50;;;6.00;;
78430;SDS011;67727;50.236;22.452;2023-07-02T08:56:40;7.50;;;6.50;;
78430;SDS011;67727;50.236;22.452;2023-07-02T08:59:09;12.10;;;6.60;;
78430;SDS011;67727;50.236;22.452;2023-07-02T09:04:21;9.50;;;6.00;;
78430;SDS011;67727;50.236;22.452;2023-07-02T09:07:08;9.10;;;5.40;;
78430;SDS011;67727;50.236;22.452;2023-07-02T09:09:46;7.40;;;6.10;;
78430;SDS011;67727;50.236;22.452;2023-07-02T09:12:24;7.40;;;5.80;;
78430;SDS011;67727;50.236;22.452;2023-07-02T09:14:56;7.20;;;5.60;;
78430;SDS011;67727;50.236;22.452;2023-07-02T09:17:28;7.90;;;5.90;;
78430;SDS011;67727;50.236;22.452;2023-07-02T09:19:57;8.10;;;5.50;;
78430;SDS011;67727;50.236;22.452;2023-07-02T09:22:27;8.50;;;5.90;;
78430;SDS011;67727;50.236;22.452;2023-07-02T09:24:59;11.30;;;6.50;;
78430;SDS011;67727;50.236;22.452;2023-07-02T09:27:36;7.90;;;6.00;;
78430;SDS011;67727;50.236;22.452;2023-07-02T09:30:10;9.00;;;5.90;;
78430;SDS011;67727;50.236;22.452;2023-07-02T09:32:44;7.70;;;5.90;;
78430;SDS011;67727;50.236;22.452;2023-07-02T09:35:12;9.10;;;6.00;;
78430;SDS011;67727;50.236;22.452;2023-07-02T09:37:42;9.70;;;5.80;;
78430;SDS011;67727;50.236;22.452;2023-07-02T09:40:10;7.40;;;6.40;;
78430;SDS011;67727;50.236;22.452;2023-07-02T09:42:41;10.80;;;5.80;;
78430;SDS011;67727;50.236;22.452;2023-07-02T09:45:09;6.60;;;5.60;;
78430;SDS011;67727;50.236;22.452;2023-07-02T09:47:49;7.30;;;5.50;;
78430;SDS011;67727;50.236;22.452;2023-07-02T09:50:18;8.60;;;5.50;;
78430;SDS011;67727;50.236;22.452;2023-07-02T09:52:47;7.30;;;5.60;;
78430;SDS011;67727;50.236;22.452;2023-07-02T09:55:14;6.40;;;5.00;;
78430;SDS011;67727;50.236;22.452;2023-07-02T09:57:45;5.80;;;4.80;;
78430;SDS011;67727;50.236;22.452;2023-07-02T10:00:14;7.90;;;5.90;;
78430;SDS011;67727;50.236;22.452;2023-07-02T10:02:47;8.40;;;5.40;;
78430;SDS011;67727;50.236;22.452;2023-07-02T10:05:31;9.00;;;5.50;;
78430;SDS011;67727;50.236;22.452;2023-07-02T10:08:13;8.80;;;5.70;;
78430;SDS011;67727;50.236;22.452;2023-07-02T10:10:42;8.80;;;5.50;;
78430;SDS011;67727;50.236;22.452;2023-07-02T10:13:09;6.10;;;4.70;;
78430;SDS011;67727;50.236;22.452;2023-07-02T10:15:36;8.30;;;5.50;;
78430;SDS011;67727;50.236;22.452;2023-07-02T10:18:04;8.70;;;5.60;;
78430;SDS011;67727;50.236;22.452;2023-07-02T10:20:38;10.10;;;6.40;;
78430;SDS011;67727;50.236;22.452;2023-07-02T10:23:07;8.60;;;5.40;;
78430;SDS011;67727;50.236;22.452;2023-07-02T10:25:36;10.40;;;6.00;;
78430;SDS011;67727;50.236;22.452;2023-07-02T10:28:20;6.40;;;5.00;;
78430;SDS011;67727;50.236;22.452;2023-07-02T10:30:49;6.90;;;5.80;;
78430;SDS011;67727;50.236;22.452;2023-07-02T10:33:16;9.00;;;5.90;;
78430;SDS011;67727;50.236;22.452;2023-07-02T10:35:45;8.00;;;5.50;;
78430;SDS011;67727;50.236;22.452;2023-07-02T10:38:22;10.40;;;7.00;;
78430;SDS011;67727;50.236;22.452;2023-07-02T10:40:54;7.50;;;6.10;;
78430;SDS011;67727;50.236;22.452;2023-07-02T10:43:25;8.40;;;5.60;;
78430;SDS011;67727;50.236;22.452;2023-07-02T10:45:54;9.20;;;6.90;;
78430;SDS011;67727;50.236;22.452;2023-07-02T10:48:21;11.40;;;5.70;;
78430;SDS011;67727;50.236;22.452;2023-07-02T10:50:48;7.30;;;6.20;;
78430;SDS011;67727;50.236;22.452;2023-07-02T10:53:16;8.10;;;6.20;;
78430;SDS011;67727;50.236;22.452;2023-07-02T10:55:44;10.40;;;6.60;;
78430;SDS011;67727;50.236;22.452;2023-07-02T10:58:15;8.70;;;5.90;;
78430;SDS011;67727;50.236;22.452;2023-07-02T11:00:46;8.50;;;5.70;;
78430;SDS011;67727;50.236;22.452;2023-07-02T11:03:20;9.10;;;5.80;;
78430;SDS011;67727;50.236;22.452;2023-07-02T11:05:49;8.30;;;5.90;;
78430;SDS011;67727;50.236;22.452;2023-07-02T11:08:16;7.80;;;4.90;;
78430;SDS011;67727;50.236;22.452;2023-07-02T11:10:44;7.30;;;5.00;;
78430;SDS011;67727;50.236;22.452;2023-07-02T11:13:15;8.60;;;5.70;;
78430;SDS011;67727;50.236;22.452;2023-07-02T11:15:44;7.10;;;5.00;;
78430;SDS011;67727;50.236;22.452;2023-07-02T11:18:32;8.20;;;5.20;;
78430;SDS011;67727;50.236;22.452;2023-07-02T11:21:08;6.20;;;5.50;;
78430;SDS011;67727;50.236;22.452;2023-07-02T11:23:36;7.50;;;5.80;;
78430;SDS011;67727;50.236;22.452;2023-07-02T11:26:03;8.00;;;5.30;;
78430;SDS011;67727;50.236;22.452;2023-07-02T11:28:30;9.60;;;5.70;;
78430;SDS011;67727;50.236;22.452;2023-07-02T11:30:58;9.20;;;5.60;;
78430;SDS011;67727;50.236;22.452;2023-07-02T11:33:59;8.90;;;5.10;;
78430;SDS011;67727;50.236;22.452;2023-07-02T11:36:20;6.10;;;4.90;;
78430;SDS011;67727;50.236;22.452;2023-07-02T11:38:49;7.70;;;5.60;;
78430;SDS011;67727;50.236;22.452;2023-07-02T11:41:18;7.80;;;5.20;;
78430;SDS011;67727;50.236;22.452;2023-07-02T11:43:46;12.80;;;6.30;;
78430;SDS011;67727;50.236;22.452;2023-07-02T11:46:13;10.70;;;5.70;;
78430;SDS011;67727;50.236;22.452;2023-07-02T11:48:40;11.20;;;5.50;;
78430;SDS011;67727;50.236;22.452;2023-07-02T11:51:07;10.50;;;5.10;;
78430;SDS011;67727;50.236;22.452;2023-07-02T11:53:34;9.10;;;5.30;;
78430;SDS011;67727;50.236;22.452;2023-07-02T11:56:01;10.70;;;6.30;;
78430;SDS011;67727;50.236;22.452;2023-07-02T11:58:27;9.20;;;5.20;;
78430;SDS011;67727;50.236;22.452;2023-07-02T12:00:54;8.30;;;6.10;;
78430;SDS011;67727;50.236;22.452;2023-07-02T12:03:21;9.00;;;5.50;;
78430;SDS011;67727;50.236;22.452;2023-07-02T12:05:48;7.80;;;5.40;;
78430;SDS011;67727;50.236;22.452;2023-07-02T12:08:15;9.50;;;4.70;;
78430;SDS011;67727;50.236;22.452;2023-07-02T12:10:41;8.20;;;5.10;;
78430;SDS011;67727;50.236;22.452;2023-07-02T12:13:08;8.40;;;4.60;;
78430;SDS011;67727;50.236;22.452;2023-07-02T12:15:35;9.50;;;5.10;;
78430;SDS011;67727;50.236;22.452;2023-07-02T12:18:02;8.90;;;5.60;;
78430;SDS011;67727;50.236;22.452;2023-07-02T12:20:29;10.00;;;5.70;;
78430;SDS011;67727;50.236;22.452;2023-07-02T12:22:56;7.30;;;5.00;;
78430;SDS011;67727;50.236;22.452;2023-07-02T12:25:23;13.40;;;5.80;;
78430;SDS011;67727;50.236;22.452;2023-07-02T12:27:50;7.50;;;5.20;;
78430;SDS011;67727;50.236;22.452;2023-07-02T12:30:17;8.30;;;5.10;;
78430;SDS011;67727;50.236;22.452;2023-07-02T12:32:45;6.90;;;5.20;;
78430;SDS011;67727;50.236;22.452;2023-07-02T12:35:12;7.80;;;4.60;;
78430;SDS011;67727;50.236;22.452;2023-07-02T12:40:15;8.30;;;4.90;;
78430;SDS011;67727;50.236;22.452;2023-07-02T12:42:44;7.40;;;4.30;;
78430;SDS011;67727;50.236;22.452;2023-07-02T12:45:12;9.00;;;4.90;;
78430;SDS011;67727;50.236;22.452;2023-07-02T12:47:40;7.60;;;4.60;;
78430;SDS011;67727;50.236;22.452;2023-07-02T12:50:09;7.80;;;4.70;;
78430;SDS011;67727;50.236;22.452;2023-07-02T12:52:37;9.70;;;5.10;;
78430;SDS011;67727;50.236;22.452;2023-07-02T12:55:04;7.50;;;4.80;;
78430;SDS011;67727;50.236;22.452;2023-07-02T12:57:35;5.80;;;3.70;;
78430;SDS011;67727;50.236;22.452;2023-07-02T13:00:02;6.20;;;4.70;;
78430;SDS011;67727;50.236;22.452;2023-07-02T13:02:34;8.60;;;4.30;;
78430;SDS011;67727;50.236;22.452;2023-07-02T13:05:01;8.60;;;4.80;;
78430;SDS011;67727;50.236;22.452;2023-07-02T13:07:28;6.10;;;4.50;;
78430;SDS011;67727;50.236;22.452;2023-07-02T13:12:32;6.80;;;3.90;;
78430;SDS011;67727;50.236;22.452;2023-07-02T13:15:00;7.90;;;3.90;;
78430;SDS011;67727;50.236;22.452;2023-07-02T13:17:27;7.30;;;4.20;;
78430;SDS011;67727;50.236;22.452;2023-07-02T13:19:55;6.80;;;4.50;;
78430;SDS011;67727;50.236;22.452;2023-07-02T13:22:24;7.30;;;3.90;;
78430;SDS011;67727;50.236;22.452;2023-07-02T13:24:51;6.40;;;4.10;;
78430;SDS011;67727;50.236;22.452;2023-07-02T13:27:18;6.60;;;4.20;;
78430;SDS011;67727;50.236;22.452;2023-07-02T13:29:45;5.20;;;3.80;;
78430;SDS011;67727;50.236;22.452;2023-07-02T13:32:13;7.70;;;4.20;;
78430;SDS011;67727;50.236;22.452;2023-07-02T13:34:40;7.10;;;4.20;;
78430;SDS011;67727;50.236;22.452;2023-07-02T13:37:08;6.80;;;4.50;;
78430;SDS011;67727;50.236;22.452;2023-07-02T13:39:35;7.90;;;3.80;;
78430;SDS011;67727;50.236;22.452;2023-07-02T13:42:02;5.70;;;4.30;;
78430;SDS011;67727;50.236;22.452;2023-07-02T13:44:29;6.00;;;3.90;;
78430;SDS011;67727;50.236;22.452;2023-07-02T13:49:23;4.70;;;3.30;;
78430;SDS011;67727;50.236;22.452;2023-07-02T13:51:49;5.50;;;4.10;;
78430;SDS011;67727;50.236;22.452;2023-07-02T13:54:17;6.30;;;3.80;;
78430;SDS011;67727;50.236;22.452;2023-07-02T13:56:45;5.20;;;3.60;;
78430;SDS011;67727;50.236;22.452;2023-07-02T13:59:13;8.70;;;3.60;;
78430;SDS011;67727;50.236;22.452;2023-07-02T14:01:42;8.00;;;3.60;;
78430;SDS011;67727;50.236;22.452;2023-07-02T14:04:10;6.10;;;3.80;;
78430;SDS011;67727;50.236;22.452;2023-07-02T14:06:38;5.90;;;3.70;;
78430;SDS011;67727;50.236;22.452;2023-07-02T14:09:05;5.20;;;3.80;;
78430;SDS011;67727;50.236;22.452;2023-07-02T14:11:34;6.40;;;4.00;;
78430;SDS011;67727;50.236;22.452;2023-07-02T14:14:02;7.70;;;4.10;;
78430;SDS011;67727;50.236;22.452;2023-07-02T14:16:29;6.70;;;3.90;;
78430;SDS011;67727;50.236;22.452;2023-07-02T14:18:56;5.80;;;3.50;;
78430;SDS011;67727;50.236;22.452;2023-07-02T14:21:23;6.70;;;3.30;;
78430;SDS011;67727;50.236;22.452;2023-07-02T14:23:50;5.50;;;3.80;;
78430;SDS011;67727;50.236;22.452;2023-07-02T14:26:17;5.50;;;3.30;;
78430;SDS011;67727;50.236;22.452;2023-07-02T14:28:44;6.60;;;3.40;;
78430;SDS011;67727;50.236;22.452;2023-07-02T14:31:11;5.50;;;3.30;;
78430;SDS011;67727;50.236;22.452;2023-07-02T14:33:38;4.70;;;3.40;;
78430;SDS011;67727;50.236;22.452;2023-07-02T14:36:07;7.90;;;3.50;;
78430;SDS011;67727;50.236;22.452;2023-07-02T14:38:35;5.00;;;3.60;;
78430;SDS011;67727;50.236;22.452;2023-07-02T14:41:02;4.40;;;3.20;;
78430;SDS011;67727;50.236;22.452;2023-07-02T14:43:30;5.00;;;3.40;;
78430;SDS011;67727;50.236;22.452;2023-07-02T14:45:59;4.20;;;3.10;;
78430;SDS011;67727;50.236;22.452;2023-07-02T14:48:28;6.00;;;3.70;;
78430;SDS011;67727;50.236;22.452;2023-07-02T14:50:56;4.80;;;3.70;;
78430;SDS011;67727;50.236;22.452;2023-07-02T14:53:25;5.10;;;3.50;;
78430;SDS011;67727;50.236;22.452;2023-07-02T14:55:54;5.00;;;3.60;;
78430;SDS011;67727;50.236;22.452;2023-07-02T14:58:23;6.80;;;3.90;;
78430;SDS011;67727;50.236;22.452;2023-07-02T15:00:52;5.30;;;4.00;;
78430;SDS011;67727;50.236;22.452;2023-07-02T15:03:21;5.80;;;4.20;;
78430;SDS011;67727;50.236;22.452;2023-07-02T15:05:49;5.60;;;3.70;;
78430;SDS011;67727;50.236;22.452;2023-07-02T15:08:19;5.50;;;3.40;;
78430;SDS011;67727;50.236;22.452;2023-07-02T15:10:48;4.20;;;3.20;;
78430;SDS011;67727;50.236;22.452;2023-07-02T15:13:17;5.10;;;4.30;;
78430;SDS011;67727;50.236;22.452;2023-07-02T15:15:45;4.40;;;3.20;;
78430;SDS011;67727;50.236;22.452;2023-07-02T15:18:12;4.90;;;3.50;;